Skip Navigation LinksHome page > Weather > Current weather Skip Navigation Links

Current Weather

Oxnard, Calif.

For information only: do not use for flight planning or navigation.
Latest weather
Observation time Monday, November 29, 2021 11:51 AM PST
Local time Monday, November 29, 2021 12:38 PM PST
Flight conditions Visual Meteorological Conditions
Winds
Wind direction West (280°)
Wind speed 8 mph
Visibility 10 mi.
Sky condition
Ceiling unlimited
Sky clear
Temperature 65°F
Dewpoint 54°F
Altimeter 30.07 in.Hg
Derived measurements
Relative humidity 68%
Density altitude 460 ft.
Sea-level pressure 30.06 in.Hg
Remarks
System requires maintenance.
Automated weather observing station with precipitation discriminator.
METAR KOXR 291951Z 28007KT 10SM CLR 18/12 A3007 RMK AO2 SLP181 T01830122 $

Settings

Location code

InnerDrive.Weather 4.0.6770.0 Release CLR 4.0.30319.42000
Copyright ©2018 Inner Drive Technology. All rights reserved. Portions Copyright ©1986-2018 David Braverman.

Find weather

Site navigation


Skip Navigation Links

Place info

Page info

PayPal - The safer, easier way to pay online!

Return home.

Copyright ©2021 Inner Drive Technology. Purveyors of fine, hand-crafted computer software. Page printed 2021-11-29T20:38:43 UTC.